Terminal Aerodrome Forecast
Issued by NWS Portland, ME

Current Version | Previous Version | Text Only | Print | Product List | Glossary On
Versions: 1 2 3 4 5 6 7 8 9 10 11 12 13 14 15 16 17 18 19 20 21 22 23 24 25 26
000 FTUS41 KGYX 160300 AAD TAFCON TAF AMD KCON 160306Z 1603/1624 30015G25KT 6SM -SHRA FEW012 OVC020 FM160400 30015G25KT 6SM -SHRASN SCT025 OVC040 FM160700 32017G30KT P6SM SCT040 FM162200 32010KT P6SM SKC=

USA.gov is the U.S. government's official web portal to all federal, state and local government web resources and services.